createdAt,value
2022-10-25T00:01:54.965Z,24.60
2022-10-25T00:06:52.629Z,24.17
2022-10-25T00:09:18.978Z,26.85
2022-10-25T00:11:45.316Z,23.55
2022-10-25T00:14:16.583Z,25.80
2022-10-25T00:16:42.995Z,27.42
2022-10-25T00:19:11.808Z,27.47
2022-10-25T00:21:38.178Z,25.98
2022-10-25T00:24:04.883Z,27.88
2022-10-25T00:26:31.241Z,24.42
2022-10-25T00:28:57.668Z,29.02
2022-10-25T00:31:24.520Z,29.63
2022-10-25T00:33:50.879Z,29.85
2022-10-25T00:36:21.310Z,28.45
2022-10-25T00:38:48.347Z,32.63
2022-10-25T00:41:17.758Z,27.95
2022-10-25T00:43:50.126Z,34.47
2022-10-25T00:46:28.423Z,34.83
2022-10-25T00:49:03.989Z,35.75
2022-10-25T00:51:58.974Z,41.15
2022-10-25T00:54:31.938Z,41.70
2022-10-25T00:57:02.097Z,32.53
2022-10-25T00:59:29.031Z,34.72
2022-10-25T01:01:56.455Z,39.00
2022-10-25T01:04:28.853Z,42.20
2022-10-25T01:06:55.547Z,40.00
2022-10-25T01:09:26.445Z,38.90
2022-10-25T01:11:53.232Z,39.50
2022-10-25T01:14:21.181Z,39.47
2022-10-25T01:17:12.183Z,37.85
2022-10-25T01:19:53.842Z,33.63
2022-10-25T01:22:37.383Z,39.50
2022-10-25T01:25:15.970Z,40.13
2022-10-25T01:30:43.462Z,35.03
2022-10-25T01:33:18.690Z,35.88
2022-10-25T01:36:01.033Z,36.43
2022-10-25T01:38:47.718Z,35.70
2022-10-25T01:41:38.772Z,31.58
2022-10-25T01:44:30.348Z,29.35
2022-10-25T01:47:00.094Z,32.35
2022-10-25T01:49:37.349Z,31.50
2022-10-25T01:52:03.878Z,28.90
2022-10-25T01:54:30.312Z,29.38
2022-10-25T01:57:11.838Z,32.03
2022-10-25T02:00:08.679Z,34.92
2022-10-25T02:03:06.023Z,33.67
2022-10-25T02:05:51.386Z,35.42
2022-10-25T02:08:42.782Z,32.25
2022-10-25T02:11:16.568Z,33.28
2022-10-25T02:14:01.224Z,33.63
2022-10-25T02:16:32.315Z,33.47
2022-10-25T02:19:02.284Z,35.00
2022-10-25T02:21:32.572Z,30.83
2022-10-25T02:24:03.349Z,32.38
2022-10-25T02:26:29.898Z,30.92
2022-10-25T02:28:57.324Z,28.97
2022-10-25T02:31:25.860Z,32.47
2022-10-25T02:33:52.285Z,31.08
2022-10-25T02:36:22.067Z,29.58
2022-10-25T02:38:50.299Z,29.77
2022-10-25T02:41:17.354Z,33.30
2022-10-25T02:43:43.982Z,33.38
2022-10-25T02:46:13.811Z,27.75
2022-10-25T02:48:40.710Z,31.15
2022-10-25T02:51:08.590Z,31.50
2022-10-25T02:53:35.230Z,29.87
2022-10-25T02:56:12.223Z,31.67
2022-10-25T02:58:40.899Z,28.38
2022-10-25T03:01:08.105Z,28.52
2022-10-25T03:03:35.315Z,31.60
2022-10-25T03:06:01.722Z,31.73
2022-10-25T03:11:00.579Z,26.75
2022-10-25T03:13:27.141Z,28.33
2022-10-25T03:15:53.486Z,32.95
2022-10-25T03:18:19.883Z,27.30
2022-10-25T03:20:46.270Z,28.70
2022-10-25T03:23:12.731Z,27.08
2022-10-25T03:25:39.168Z,26.55
2022-10-25T03:28:05.635Z,30.60
2022-10-25T03:30:32.180Z,26.43
2022-10-25T03:32:58.855Z,27.73
2022-10-25T03:35:26.441Z,26.88
2022-10-25T03:37:53.695Z,29.05
2022-10-25T03:40:20.659Z,25.80
2022-10-25T03:42:47.157Z,23.93
2022-10-25T03:45:13.530Z,28.30
2022-10-25T03:47:40.356Z,27.30
2022-10-25T03:50:07.926Z,26.25
2022-10-25T03:52:34.349Z,28.88
2022-10-25T03:55:00.726Z,27.10
2022-10-25T03:57:27.084Z,29.30
2022-10-25T03:59:53.462Z,26.92
2022-10-25T04:02:19.852Z,31.52
2022-10-25T04:04:46.201Z,27.38
2022-10-25T04:07:12.608Z,30.10
2022-10-25T04:09:38.950Z,28.90
2022-10-25T04:12:05.544Z,29.38
2022-10-25T04:14:32.037Z,28.23
2022-10-25T04:16:58.490Z,29.40
2022-10-25T04:19:24.843Z,27.87
2022-10-25T04:21:51.244Z,28.25
2022-10-25T04:24:17.669Z,28.40
2022-10-25T04:26:44.062Z,28.10
2022-10-25T04:29:11.574Z,27.83
2022-10-25T04:31:38.067Z,30.50
2022-10-25T04:34:04.611Z,35.63
2022-10-25T04:36:31.436Z,28.67
2022-10-25T04:38:57.860Z,29.83
2022-10-25T04:41:24.439Z,26.05
2022-10-25T04:43:52.179Z,28.30
2022-10-25T04:46:20.120Z,33.42
2022-10-25T04:48:46.757Z,28.60
2022-10-25T04:51:15.387Z,31.67
2022-10-25T04:53:41.936Z,32.20
2022-10-25T04:56:11.039Z,34.10
2022-10-25T04:58:37.486Z,30.92
2022-10-25T05:01:07.324Z,32.22
2022-10-25T05:03:34.262Z,30.95
2022-10-25T05:06:21.162Z,32.45
2022-10-25T05:08:49.279Z,27.73
2022-10-25T05:11:17.823Z,29.50
2022-10-25T05:13:45.065Z,27.40
2022-10-25T05:16:24.328Z,33.90
2022-10-25T05:18:54.310Z,35.08
2022-10-25T05:21:21.769Z,36.30
2022-10-25T05:23:48.199Z,29.95
2022-10-25T05:26:17.582Z,32.53
2022-10-25T05:28:45.980Z,31.77
2022-10-25T05:31:17.065Z,31.42
2022-10-25T05:33:45.013Z,35.17
2022-10-25T05:36:13.303Z,28.55
2022-10-25T05:38:40.655Z,34.95
2022-10-25T05:41:08.061Z,29.98
2022-10-25T05:43:34.509Z,36.60
2022-10-25T05:46:04.076Z,31.67
2022-10-25T05:48:31.157Z,35.83
2022-10-25T05:51:28.810Z,33.20
2022-10-25T05:54:00.196Z,31.95
2022-10-25T05:56:28.871Z,33.35
2022-10-25T05:58:58.400Z,34.53
2022-10-25T06:01:26.682Z,31.95
2022-10-25T06:03:54.864Z,30.92
2022-10-25T06:06:22.691Z,34.28
2022-10-25T06:08:49.095Z,29.73
2022-10-25T06:11:18.307Z,30.47
2022-10-25T06:13:45.013Z,33.33
2022-10-25T06:16:13.694Z,33.20
2022-10-25T06:18:40.340Z,26.73
2022-10-25T06:21:15.344Z,30.70
2022-10-25T06:23:42.900Z,34.10
2022-10-25T06:26:12.013Z,29.17
2022-10-25T06:28:39.237Z,29.23
2022-10-25T06:31:11.499Z,27.75
2022-10-25T06:33:38.920Z,25.00
2022-10-25T06:36:12.801Z,30.40
2022-10-25T06:38:39.795Z,27.10
2022-10-25T06:41:09.641Z,25.80
2022-10-25T06:43:36.012Z,26.15
2022-10-25T06:46:21.846Z,27.63
2022-10-25T06:48:48.672Z,21.80
2022-10-25T06:51:15.393Z,27.25
2022-10-25T06:53:41.794Z,25.30
2022-10-25T06:56:14.477Z,23.75
2022-10-25T06:58:41.483Z,24.30
2022-10-25T07:01:11.789Z,27.20
2022-10-25T07:03:38.843Z,23.25
2022-10-25T07:06:10.623Z,26.30
2022-10-25T07:08:38.794Z,23.02
2022-10-25T07:11:05.860Z,25.40
2022-10-25T07:13:33.651Z,24.40
2022-10-25T07:16:04.750Z,27.05
2022-10-25T07:18:31.855Z,23.30
2022-10-25T07:20:59.730Z,27.98
2022-10-25T07:23:27.159Z,20.30
2022-10-25T07:25:53.500Z,23.53
2022-10-25T07:28:19.854Z,26.63
2022-10-25T07:30:47.282Z,22.02
2022-10-25T07:33:15.124Z,24.98
2022-10-25T07:35:58.685Z,23.92
2022-10-25T07:38:32.214Z,25.77
2022-10-25T07:40:59.286Z,22.92
2022-10-25T07:43:27.136Z,21.30
2022-10-25T07:45:53.828Z,23.55
2022-10-25T07:48:20.464Z,21.60
2022-10-25T07:50:46.863Z,21.83
2022-10-25T07:53:13.235Z,21.88
2022-10-25T07:55:39.780Z,20.38
2022-10-25T07:58:08.146Z,22.42
2022-10-25T08:00:35.850Z,21.88
2022-10-25T08:03:02.569Z,19.70
2022-10-25T08:05:28.977Z,22.48
2022-10-25T08:07:55.367Z,22.83
2022-10-25T08:10:21.834Z,22.35
2022-10-25T08:12:49.175Z,25.65
2022-10-25T08:15:16.245Z,19.60
2022-10-25T08:17:42.624Z,22.30
2022-10-25T08:20:09.442Z,23.50
2022-10-25T08:22:35.829Z,19.80
2022-10-25T08:25:04.985Z,20.67
2022-10-25T08:27:32.110Z,19.03
2022-10-25T08:29:58.558Z,22.02
2022-10-25T08:32:25.035Z,29.98
2022-10-25T08:34:51.382Z,18.88
2022-10-25T08:37:17.899Z,24.73
2022-10-25T08:39:44.918Z,28.13
2022-10-25T08:42:22.523Z,17.58
2022-10-25T08:45:05.697Z,18.02
2022-10-25T08:47:40.711Z,19.42
2022-10-25T08:50:15.177Z,17.00
2022-10-25T08:52:54.516Z,17.37
2022-10-25T08:55:35.224Z,18.73
2022-10-25T08:58:06.910Z,20.48
2022-10-25T09:00:39.305Z,17.45
2022-10-25T09:03:15.555Z,14.50
2022-10-25T09:05:51.965Z,16.93
2022-10-25T09:08:24.208Z,14.02
2022-10-25T09:10:59.046Z,15.82
2022-10-25T09:13:40.622Z,13.75
2022-10-25T09:16:18.162Z,16.35
2022-10-25T09:18:54.908Z,14.50
2022-10-25T09:21:26.212Z,16.75
2022-10-25T09:24:09.207Z,16.45
2022-10-25T09:26:44.880Z,17.98
2022-10-25T09:29:24.566Z,19.45
2022-10-25T09:31:59.569Z,16.17
2022-10-25T09:34:30.675Z,17.83
2022-10-25T09:37:06.259Z,16.30
2022-10-25T09:39:46.886Z,15.23
2022-10-25T09:42:27.685Z,13.90
2022-10-25T09:44:59.505Z,14.23
2022-10-25T09:48:00.169Z,12.77
2022-10-25T09:50:37.173Z,13.15
2022-10-25T09:53:20.325Z,12.88
2022-10-25T09:56:01.574Z,13.90
2022-10-25T09:58:48.922Z,9.63
2022-10-25T10:01:19.991Z,12.98
2022-10-25T10:03:48.927Z,10.20
2022-10-25T10:06:28.279Z,11.57
2022-10-25T10:09:02.468Z,10.20
2022-10-25T10:11:29.839Z,8.97
2022-10-25T10:14:11.046Z,9.25
2022-10-25T10:16:47.822Z,12.32
2022-10-25T10:19:18.292Z,11.95
2022-10-25T10:21:47.089Z,10.70
2022-10-25T10:24:21.461Z,12.73
2022-10-25T10:26:54.186Z,12.13
2022-10-25T10:29:22.770Z,11.52
2022-10-25T10:31:55.182Z,8.88
2022-10-25T10:34:32.772Z,10.90
2022-10-25T10:37:03.819Z,9.50
2022-10-25T10:39:30.240Z,8.60
2022-10-25T10:42:03.406Z,9.57
2022-10-25T10:44:34.332Z,10.13
2022-10-25T10:47:09.771Z,10.98
2022-10-25T10:49:40.797Z,10.57
2022-10-25T10:52:32.261Z,9.15
2022-10-25T10:54:59.642Z,12.38
2022-10-25T10:57:32.818Z,8.18
2022-10-25T11:00:00.902Z,7.88
2022-10-25T11:02:41.603Z,8.07
2022-10-25T11:05:26.540Z,9.75
2022-10-25T11:07:58.199Z,7.82
2022-10-25T11:10:26.246Z,8.40
2022-10-25T11:13:10.220Z,11.27
2022-10-25T11:16:02.454Z,10.07
2022-10-25T11:18:43.856Z,7.80
2022-10-25T11:21:26.891Z,9.60
2022-10-25T11:24:08.434Z,10.10
2022-10-25T11:26:46.060Z,6.95
2022-10-25T11:29:39.302Z,9.13
2022-10-25T11:32:27.855Z,6.32
2022-10-25T11:35:20.469Z,8.30
2022-10-25T11:38:02.816Z,9.38
2022-10-25T11:40:52.551Z,9.35
2022-10-25T11:43:50.435Z,11.67
2022-10-25T11:46:41.268Z,8.93
2022-10-25T11:49:28.234Z,10.10
2022-10-25T11:52:12.640Z,9.82
2022-10-25T11:54:43.653Z,7.05
2022-10-25T11:57:26.976Z,6.73
2022-10-25T12:00:11.645Z,9.40
2022-10-25T12:03:16.225Z,11.25
2022-10-25T12:05:54.671Z,13.13
2022-10-25T12:09:00.692Z,11.57
2022-10-25T12:11:33.860Z,12.07
2022-10-25T12:14:05.081Z,9.60
2022-10-25T12:16:34.057Z,8.63
2022-10-25T12:19:23.016Z,8.20
2022-10-25T12:22:30.267Z,11.00
2022-10-25T12:25:05.093Z,8.93
2022-10-25T12:27:33.914Z,10.10
2022-10-25T12:30:15.011Z,9.38
2022-10-25T12:32:52.467Z,7.78
2022-10-25T12:35:32.294Z,9.65
2022-10-25T12:38:07.916Z,6.20
2022-10-25T12:40:41.641Z,6.45
2022-10-25T12:43:23.635Z,10.18
2022-10-25T12:46:06.578Z,9.02
2022-10-25T12:48:53.376Z,7.90
2022-10-25T12:51:48.434Z,6.87
2022-10-25T12:55:02.811Z,7.25
2022-10-25T12:57:37.379Z,11.80
2022-10-25T13:00:15.844Z,7.65
2022-10-25T13:03:08.432Z,9.23
2022-10-25T13:06:01.735Z,6.80
2022-10-25T13:08:29.602Z,10.05
2022-10-25T13:11:02.796Z,8.65
2022-10-25T13:13:37.953Z,8.40
2022-10-25T13:16:06.181Z,9.68
2022-10-25T13:18:32.533Z,9.07
2022-10-25T13:21:01.205Z,7.63
2022-10-25T13:23:42.822Z,7.88
2022-10-25T13:26:15.584Z,9.25
2022-10-25T13:28:52.535Z,9.27
2022-10-25T13:31:34.067Z,7.43
2022-10-25T13:34:12.606Z,11.00
2022-10-25T13:36:49.310Z,12.43
2022-10-25T13:39:39.135Z,6.78
2022-10-25T13:42:14.762Z,8.23
2022-10-25T13:44:55.673Z,10.03
2022-10-25T13:47:41.423Z,7.10
2022-10-25T13:50:38.376Z,9.45
2022-10-25T13:53:19.151Z,6.93
2022-10-25T13:56:07.561Z,11.48
2022-10-25T13:58:33.918Z,7.63
2022-10-25T14:01:15.405Z,7.50
2022-10-25T14:04:05.931Z,7.07
2022-10-25T14:06:43.594Z,7.30
2022-10-25T14:09:09.965Z,7.85
2022-10-25T14:11:41.050Z,9.30
2022-10-25T14:14:15.689Z,11.43
2022-10-25T14:16:53.454Z,7.82
2022-10-25T14:19:37.965Z,6.25
2022-10-25T14:22:13.727Z,8.30
2022-10-25T14:24:42.208Z,7.20
2022-10-25T14:27:26.531Z,9.10
2022-10-25T14:29:52.888Z,8.40
2022-10-25T14:32:21.807Z,12.10
2022-10-25T14:34:53.057Z,8.15
2022-10-25T14:37:19.740Z,7.13
2022-10-25T14:39:53.320Z,8.20
2022-10-25T14:42:19.845Z,7.68
2022-10-25T14:44:49.353Z,7.40
2022-10-25T14:47:31.031Z,8.88
2022-10-25T14:49:58.713Z,8.63
2022-10-25T14:52:30.739Z,9.02
2022-10-25T14:55:06.079Z,7.50
2022-10-25T14:57:34.562Z,8.05
2022-10-25T15:00:03.352Z,8.88
2022-10-25T15:02:39.814Z,7.80
2022-10-25T15:05:06.993Z,9.82
2022-10-25T15:07:39.246Z,10.32
2022-10-25T15:12:37.573Z,8.82
2022-10-25T15:15:32.300Z,9.13
2022-10-25T15:17:58.649Z,9.32
2022-10-25T15:20:33.006Z,11.10
2022-10-25T15:23:05.832Z,13.60
2022-10-25T15:25:37.267Z,9.57
2022-10-25T15:28:12.642Z,10.67
2022-10-25T15:30:43.858Z,10.40
2022-10-25T15:33:17.215Z,12.75
2022-10-25T15:35:52.189Z,7.43
2022-10-25T15:38:19.310Z,11.20
2022-10-25T15:40:47.263Z,9.33
2022-10-25T15:43:13.869Z,11.15
2022-10-25T15:45:40.724Z,8.43
2022-10-25T15:48:14.067Z,8.07
2022-10-25T15:50:45.444Z,9.65
2022-10-25T15:53:14.083Z,10.80
2022-10-25T15:55:41.449Z,9.43
2022-10-25T15:58:09.909Z,12.77
2022-10-25T16:00:37.978Z,8.75
2022-10-25T16:03:05.011Z,8.93
2022-10-25T16:05:33.841Z,11.57
2022-10-25T16:08:00.677Z,10.00
2022-10-25T16:10:28.614Z,12.43
2022-10-25T16:13:01.432Z,11.15
2022-10-25T16:15:28.861Z,9.93
2022-10-25T16:17:55.203Z,9.23
2022-10-25T16:20:24.924Z,10.15
2022-10-25T16:22:51.971Z,8.73
2022-10-25T16:25:19.883Z,9.77
2022-10-25T16:27:47.396Z,8.27
2022-10-25T16:30:25.620Z,10.53
2022-10-25T16:32:52.766Z,7.57
2022-10-25T16:35:24.018Z,9.02
2022-10-25T16:37:51.583Z,11.60
2022-10-25T16:40:19.514Z,14.10
2022-10-25T16:42:47.040Z,11.30
2022-10-25T16:45:24.961Z,11.10
2022-10-25T16:47:52.303Z,13.18
2022-10-25T16:50:23.081Z,11.10
2022-10-25T16:52:54.744Z,13.00
2022-10-25T16:55:21.111Z,12.57
2022-10-25T17:00:15.627Z,12.95
2022-10-25T17:02:42.049Z,13.23
2022-10-25T17:05:19.445Z,16.42
2022-10-25T17:07:46.222Z,15.90
2022-10-25T17:10:17.084Z,15.65
2022-10-25T17:12:53.405Z,15.20
2022-10-25T17:15:21.265Z,12.68
2022-10-25T17:17:47.907Z,15.50
2022-10-25T17:20:17.072Z,15.77
2022-10-25T17:22:44.012Z,12.85
2022-10-25T17:25:11.313Z,15.13
2022-10-25T17:27:40.437Z,14.60
2022-10-25T17:30:09.005Z,16.30
2022-10-25T17:32:35.850Z,20.43
2022-10-25T17:35:02.327Z,15.98
2022-10-25T17:37:29.171Z,15.63
2022-10-25T17:39:55.564Z,16.23
2022-10-25T17:42:21.951Z,19.40
2022-10-25T17:44:48.346Z,14.50
2022-10-25T17:47:14.954Z,17.67
2022-10-25T17:49:42.443Z,16.10
2022-10-25T17:52:09.716Z,16.52
2022-10-25T17:54:38.422Z,19.25
2022-10-25T17:57:05.894Z,15.17
2022-10-25T17:59:33.462Z,17.63
2022-10-25T18:01:59.912Z,18.02
2022-10-25T18:04:26.356Z,17.15
2022-10-25T18:06:52.766Z,17.65
2022-10-25T18:09:19.338Z,18.10
2022-10-25T18:11:45.748Z,17.75
2022-10-25T18:14:12.104Z,21.65
2022-10-25T18:16:38.493Z,19.08
2022-10-25T18:19:06.039Z,16.02
2022-10-25T18:21:33.670Z,20.13
2022-10-25T18:24:02.183Z,16.38
2022-10-25T18:26:28.682Z,17.80
2022-10-25T18:28:57.200Z,16.85
2022-10-25T18:31:23.587Z,16.67
2022-10-25T18:33:49.997Z,17.37
2022-10-25T18:36:19.224Z,18.63
2022-10-25T18:38:46.891Z,14.25
2022-10-25T18:41:15.463Z,14.30
2022-10-25T18:43:42.168Z,17.95
2022-10-25T18:46:08.715Z,14.80
2022-10-25T18:48:35.215Z,13.88
2022-10-25T18:51:06.700Z,18.05
2022-10-25T18:53:35.455Z,16.33
2022-10-25T18:56:02.518Z,16.10
2022-10-25T18:58:32.082Z,15.73
2022-10-25T19:01:06.447Z,15.55
2022-10-25T19:03:32.935Z,18.02
2022-10-25T19:05:59.292Z,17.13
2022-10-25T19:08:25.647Z,16.08
2022-10-25T19:10:52.011Z,14.73
2022-10-25T19:13:21.315Z,14.23
2022-10-25T19:15:47.990Z,17.38
2022-10-25T19:18:15.744Z,18.30
2022-10-25T19:20:46.285Z,15.32
2022-10-25T19:23:13.076Z,16.43
2022-10-25T19:25:39.505Z,18.45
2022-10-25T19:28:06.144Z,13.95
2022-10-25T19:30:37.611Z,16.38
2022-10-25T19:33:04.797Z,13.77
2022-10-25T19:35:31.272Z,18.07
2022-10-25T19:37:57.928Z,16.58
2022-10-25T19:40:24.396Z,16.67
2022-10-25T19:42:50.987Z,18.33
2022-10-25T19:45:17.473Z,17.45
2022-10-25T19:47:44.752Z,21.27
2022-10-25T19:50:11.595Z,19.40
2022-10-25T19:52:38.313Z,20.58
2022-10-25T19:55:06.629Z,19.65
2022-10-25T19:57:33.929Z,17.92
2022-10-25T20:00:00.464Z,17.17
2022-10-25T20:02:26.964Z,17.83
2022-10-25T20:04:53.408Z,16.73
2022-10-25T20:07:19.779Z,20.35
2022-10-25T20:09:46.126Z,21.08
2022-10-25T20:12:12.461Z,18.70
2022-10-25T20:14:38.867Z,18.40
2022-10-25T20:17:05.928Z,20.52
2022-10-25T20:19:32.634Z,19.27
2022-10-25T20:21:59.301Z,22.98
2022-10-25T20:24:26.250Z,17.83
2022-10-25T20:26:53.222Z,18.63
2022-10-25T20:29:25.433Z,20.38
2022-10-25T20:31:52.579Z,20.75
2022-10-25T20:34:19.806Z,21.00
2022-10-25T20:36:47.131Z,18.93
2022-10-25T20:39:13.982Z,20.08
2022-10-25T20:41:40.529Z,17.50
2022-10-25T20:44:08.655Z,19.98
2022-10-25T20:46:35.431Z,21.42
2022-10-25T20:49:03.279Z,19.50
2022-10-25T20:51:29.664Z,19.88
2022-10-25T20:53:56.940Z,19.65
2022-10-25T20:56:24.028Z,19.20
2022-10-25T20:58:50.778Z,22.48
2022-10-25T21:01:17.919Z,20.10
2022-10-25T21:03:44.463Z,21.13
2022-10-25T21:06:12.290Z,19.80
2022-10-25T21:08:39.083Z,19.13
2022-10-25T21:11:09.210Z,25.35
2022-10-25T21:13:36.219Z,24.60
2022-10-25T21:16:20.833Z,19.45
2022-10-25T21:18:47.198Z,20.15
2022-10-25T21:21:19.889Z,23.02
2022-10-25T21:23:47.539Z,24.25
2022-10-25T21:26:13.896Z,20.83
2022-10-25T21:28:41.451Z,23.02
2022-10-25T21:31:10.776Z,22.27
2022-10-25T21:33:37.655Z,22.73
2022-10-25T21:36:09.951Z,20.50
2022-10-25T21:38:36.629Z,24.73
2022-10-25T21:41:06.091Z,25.27
2022-10-25T21:43:32.573Z,22.35
2022-10-25T21:45:58.936Z,26.85
2022-10-25T21:48:25.416Z,22.98
2022-10-25T21:50:55.389Z,20.53
2022-10-25T21:53:22.368Z,22.27
2022-10-25T21:55:50.225Z,25.42
2022-10-25T21:58:17.672Z,21.65
2022-10-25T22:00:44.053Z,23.95
2022-10-25T22:03:10.395Z,23.20
2022-10-25T22:05:42.811Z,22.63
2022-10-25T22:08:09.163Z,22.55
2022-10-25T22:10:35.506Z,25.10
2022-10-25T22:13:01.952Z,24.50
2022-10-25T22:15:28.298Z,24.40
2022-10-25T22:17:54.697Z,27.75
2022-10-25T22:20:21.115Z,25.17
2022-10-25T22:22:47.738Z,26.73
2022-10-25T22:25:14.252Z,25.52
2022-10-25T22:27:40.650Z,28.13
2022-10-25T22:30:07.754Z,26.77
2022-10-25T22:32:34.428Z,28.98
2022-10-25T22:35:00.768Z,25.48
2022-10-25T22:37:27.148Z,29.20
2022-10-25T22:39:53.497Z,27.53
2022-10-25T22:42:19.840Z,30.33
2022-10-25T22:44:46.183Z,26.88
2022-10-25T22:47:12.527Z,26.60
2022-10-25T22:49:38.856Z,27.48
2022-10-25T22:52:05.224Z,27.20
2022-10-25T22:54:31.568Z,28.30
2022-10-25T22:56:58.047Z,25.95
2022-10-25T22:59:24.391Z,28.45
2022-10-25T23:01:50.770Z,26.92
2022-10-25T23:04:17.203Z,29.20
2022-10-25T23:06:43.652Z,29.92
2022-10-25T23:09:11.628Z,28.20
2022-10-25T23:11:39.764Z,27.75
2022-10-25T23:14:13.205Z,30.38
2022-10-25T23:16:42.993Z,27.20
2022-10-25T23:19:09.356Z,28.45
2022-10-25T23:21:35.713Z,28.92
2022-10-25T23:24:02.078Z,25.55
2022-10-25T23:26:34.477Z,33.13
2022-10-25T23:29:01.543Z,29.33
2022-10-25T23:31:29.096Z,28.38
2022-10-25T23:33:57.827Z,25.60
2022-10-25T23:36:27.168Z,29.35
2022-10-25T23:38:55.110Z,26.35
2022-10-25T23:41:22.542Z,25.67
2022-10-25T23:43:49.247Z,26.95
2022-10-25T23:46:15.662Z,27.80
2022-10-25T23:48:42.069Z,26.92
2022-10-25T23:51:11.256Z,28.55
2022-10-25T23:53:37.750Z,26.07
2022-10-25T23:56:07.034Z,27.70
2022-10-25T23:58:33.747Z,28.27
